sensor_id;sensor_type;location;lat;lon;timestamp;P1;durP1;ratioP1;P2;durP2;ratioP2
29416;SDS011;28421;51.030;4.006;2024-03-06T00:01:10;5.43;;;3.88;;
29416;SDS011;28421;51.030;4.006;2024-03-06T00:03:36;9.75;;;4.88;;
29416;SDS011;28421;51.030;4.006;2024-03-06T00:06:01;8.77;;;4.75;;
29416;SDS011;28421;51.030;4.006;2024-03-06T00:08:26;9.80;;;3.92;;
29416;SDS011;28421;51.030;4.006;2024-03-06T00:10:53;7.47;;;4.05;;
29416;SDS011;28421;51.030;4.006;2024-03-06T00:13:18;5.55;;;4.43;;
29416;SDS011;28421;51.030;4.006;2024-03-06T00:15:44;6.60;;;3.90;;
29416;SDS011;28421;51.030;4.006;2024-03-06T00:18:10;7.10;;;4.25;;
29416;SDS011;28421;51.030;4.006;2024-03-06T00:20:35;5.03;;;3.20;;
29416;SDS011;28421;51.030;4.006;2024-03-06T00:23:01;4.28;;;3.67;;
29416;SDS011;28421;51.030;4.006;2024-03-06T00:25:26;4.50;;;3.60;;
29416;SDS011;28421;51.030;4.006;2024-03-06T00:27:52;4.30;;;3.05;;
29416;SDS011;28421;51.030;4.006;2024-03-06T00:30:17;4.57;;;3.28;;
29416;SDS011;28421;51.030;4.006;2024-03-06T00:32:43;5.07;;;3.78;;
29416;SDS011;28421;51.030;4.006;2024-03-06T00:35:09;4.55;;;3.72;;
29416;SDS011;28421;51.030;4.006;2024-03-06T00:37:36;4.65;;;3.50;;
29416;SDS011;28421;51.030;4.006;2024-03-06T00:40:01;4.28;;;3.45;;
29416;SDS011;28421;51.030;4.006;2024-03-06T00:42:28;5.03;;;3.40;;
29416;SDS011;28421;51.030;4.006;2024-03-06T00:44:54;5.10;;;3.45;;
29416;SDS011;28421;51.030;4.006;2024-03-06T00:47:19;5.55;;;3.45;;
29416;SDS011;28421;51.030;4.006;2024-03-06T00:49:46;5.15;;;3.70;;
29416;SDS011;28421;51.030;4.006;2024-03-06T00:52:12;6.68;;;3.40;;
29416;SDS011;28421;51.030;4.006;2024-03-06T00:54:37;5.55;;;2.83;;
29416;SDS011;28421;51.030;4.006;2024-03-06T00:57:03;4.70;;;2.78;;
29416;SDS011;28421;51.030;4.006;2024-03-06T00:59:28;3.80;;;3.45;;
29416;SDS011;28421;51.030;4.006;2024-03-06T01:01:54;5.80;;;4.00;;
29416;SDS011;28421;51.030;4.006;2024-03-06T01:04:22;3.83;;;3.30;;
29416;SDS011;28421;51.030;4.006;2024-03-06T01:06:48;4.53;;;3.47;;
29416;SDS011;28421;51.030;4.006;2024-03-06T01:09:14;3.80;;;3.05;;
29416;SDS011;28421;51.030;4.006;2024-03-06T01:11:39;2.92;;;2.70;;
29416;SDS011;28421;51.030;4.006;2024-03-06T01:14:05;3.45;;;2.63;;
29416;SDS011;28421;51.030;4.006;2024-03-06T01:16:31;4.90;;;3.30;;
29416;SDS011;28421;51.030;4.006;2024-03-06T01:18:56;6.80;;;3.80;;
29416;SDS011;28421;51.030;4.006;2024-03-06T01:21:22;6.95;;;2.95;;
29416;SDS011;28421;51.030;4.006;2024-03-06T01:23:47;4.65;;;3.63;;
29416;SDS011;28421;51.030;4.006;2024-03-06T01:26:13;3.50;;;3.20;;
29416;SDS011;28421;51.030;4.006;2024-03-06T01:28:38;3.72;;;3.40;;
29416;SDS011;28421;51.030;4.006;2024-03-06T01:31:03;6.13;;;3.70;;
29416;SDS011;28421;51.030;4.006;2024-03-06T01:33:29;4.38;;;3.47;;
29416;SDS011;28421;51.030;4.006;2024-03-06T01:35:54;3.70;;;3.20;;
29416;SDS011;28421;51.030;4.006;2024-03-06T01:38:20;6.60;;;3.75;;
29416;SDS011;28421;51.030;4.006;2024-03-06T01:40:45;6.03;;;3.72;;
29416;SDS011;28421;51.030;4.006;2024-03-06T01:43:18;4.35;;;3.85;;
29416;SDS011;28421;51.030;4.006;2024-03-06T01:45:48;3.30;;;2.80;;
29416;SDS011;28421;51.030;4.006;2024-03-06T01:48:15;4.75;;;3.35;;
29416;SDS011;28421;51.030;4.006;2024-03-06T01:50:42;3.55;;;3.25;;
29416;SDS011;28421;51.030;4.006;2024-03-06T01:53:08;3.67;;;3.10;;
29416;SDS011;28421;51.030;4.006;2024-03-06T01:55:35;5.95;;;4.00;;
29416;SDS011;28421;51.030;4.006;2024-03-06T01:58:01;7.75;;;4.68;;
29416;SDS011;28421;51.030;4.006;2024-03-06T02:00:27;5.88;;;3.55;;
29416;SDS011;28421;51.030;4.006;2024-03-06T02:02:53;6.22;;;3.55;;
29416;SDS011;28421;51.030;4.006;2024-03-06T02:05:19;6.80;;;4.25;;
29416;SDS011;28421;51.030;4.006;2024-03-06T02:07:45;4.35;;;3.95;;
29416;SDS011;28421;51.030;4.006;2024-03-06T02:10:12;6.30;;;4.25;;
29416;SDS011;28421;51.030;4.006;2024-03-06T02:12:38;4.57;;;4.07;;
29416;SDS011;28421;51.030;4.006;2024-03-06T02:15:04;5.93;;;4.00;;
29416;SDS011;28421;51.030;4.006;2024-03-06T02:17:30;5.85;;;4.00;;
29416;SDS011;28421;51.030;4.006;2024-03-06T02:19:56;5.30;;;4.07;;
29416;SDS011;28421;51.030;4.006;2024-03-06T02:22:23;3.15;;;2.85;;
29416;SDS011;28421;51.030;4.006;2024-03-06T02:24:49;4.78;;;3.40;;
29416;SDS011;28421;51.030;4.006;2024-03-06T02:27:14;5.07;;;3.25;;
29416;SDS011;28421;51.030;4.006;2024-03-06T02:29:41;6.47;;;3.65;;
29416;SDS011;28421;51.030;4.006;2024-03-06T02:32:07;5.00;;;3.50;;
29416;SDS011;28421;51.030;4.006;2024-03-06T02:34:33;3.90;;;3.53;;
29416;SDS011;28421;51.030;4.006;2024-03-06T02:36:59;4.00;;;3.28;;
29416;SDS011;28421;51.030;4.006;2024-03-06T02:39:24;4.32;;;3.45;;
29416;SDS011;28421;51.030;4.006;2024-03-06T02:41:50;4.80;;;4.28;;
29416;SDS011;28421;51.030;4.006;2024-03-06T02:44:15;6.15;;;3.83;;
29416;SDS011;28421;51.030;4.006;2024-03-06T02:46:46;5.57;;;4.47;;
29416;SDS011;28421;51.030;4.006;2024-03-06T02:49:13;7.82;;;5.00;;
29416;SDS011;28421;51.030;4.006;2024-03-06T02:51:38;3.80;;;2.92;;
29416;SDS011;28421;51.030;4.006;2024-03-06T02:54:03;6.03;;;4.28;;
29416;SDS011;28421;51.030;4.006;2024-03-06T02:56:29;3.60;;;3.25;;
29416;SDS011;28421;51.030;4.006;2024-03-06T02:58:55;4.82;;;4.32;;
29416;SDS011;28421;51.030;4.006;2024-03-06T03:01:20;5.50;;;4.40;;
29416;SDS011;28421;51.030;4.006;2024-03-06T03:03:45;4.88;;;3.95;;
29416;SDS011;28421;51.030;4.006;2024-03-06T03:06:12;5.18;;;3.83;;
29416;SDS011;28421;51.030;4.006;2024-03-06T03:08:38;3.85;;;3.50;;
29416;SDS011;28421;51.030;4.006;2024-03-06T03:11:04;7.18;;;4.32;;
29416;SDS011;28421;51.030;4.006;2024-03-06T03:13:29;4.10;;;3.53;;
29416;SDS011;28421;51.030;4.006;2024-03-06T03:15:56;4.07;;;3.45;;
29416;SDS011;28421;51.030;4.006;2024-03-06T03:18:21;7.10;;;4.45;;
29416;SDS011;28421;51.030;4.006;2024-03-06T03:20:47;5.45;;;4.45;;
29416;SDS011;28421;51.030;4.006;2024-03-06T03:23:12;7.00;;;4.20;;
29416;SDS011;28421;51.030;4.006;2024-03-06T03:25:40;3.95;;;3.30;;
29416;SDS011;28421;51.030;4.006;2024-03-06T03:28:09;6.35;;;3.75;;
29416;SDS011;28421;51.030;4.006;2024-03-06T03:30:35;6.18;;;4.00;;
29416;SDS011;28421;51.030;4.006;2024-03-06T03:33:00;6.63;;;4.32;;
29416;SDS011;28421;51.030;4.006;2024-03-06T03:35:26;5.00;;;4.05;;
29416;SDS011;28421;51.030;4.006;2024-03-06T03:37:51;4.22;;;3.80;;
29416;SDS011;28421;51.030;4.006;2024-03-06T03:40:17;4.18;;;3.50;;
29416;SDS011;28421;51.030;4.006;2024-03-06T03:42:43;4.85;;;3.58;;
29416;SDS011;28421;51.030;4.006;2024-03-06T03:45:09;5.47;;;3.05;;
29416;SDS011;28421;51.030;4.006;2024-03-06T03:47:34;4.20;;;3.75;;
29416;SDS011;28421;51.030;4.006;2024-03-06T03:50:00;7.85;;;4.18;;
29416;SDS011;28421;51.030;4.006;2024-03-06T03:52:25;4.72;;;3.95;;
29416;SDS011;28421;51.030;4.006;2024-03-06T03:54:51;6.93;;;4.72;;
29416;SDS011;28421;51.030;4.006;2024-03-06T03:57:16;4.55;;;4.03;;
29416;SDS011;28421;51.030;4.006;2024-03-06T03:59:42;6.65;;;4.25;;
29416;SDS011;28421;51.030;4.006;2024-03-06T04:02:08;5.15;;;3.35;;
29416;SDS011;28421;51.030;4.006;2024-03-06T04:04:33;5.60;;;3.83;;
29416;SDS011;28421;51.030;4.006;2024-03-06T04:07:00;5.03;;;3.83;;
29416;SDS011;28421;51.030;4.006;2024-03-06T04:09:29;5.40;;;4.03;;
29416;SDS011;28421;51.030;4.006;2024-03-06T04:11:55;7.15;;;4.85;;
29416;SDS011;28421;51.030;4.006;2024-03-06T04:14:21;4.43;;;3.75;;
29416;SDS011;28421;51.030;4.006;2024-03-06T04:16:47;4.03;;;3.72;;
29416;SDS011;28421;51.030;4.006;2024-03-06T04:19:13;5.35;;;4.82;;
29416;SDS011;28421;51.030;4.006;2024-03-06T04:21:42;4.22;;;3.55;;
29416;SDS011;28421;51.030;4.006;2024-03-06T04:24:07;4.45;;;4.05;;
29416;SDS011;28421;51.030;4.006;2024-03-06T04:26:33;6.68;;;5.18;;
29416;SDS011;28421;51.030;4.006;2024-03-06T04:28:58;4.80;;;4.13;;
29416;SDS011;28421;51.030;4.006;2024-03-06T04:31:24;3.55;;;3.25;;
29416;SDS011;28421;51.030;4.006;2024-03-06T04:33:50;5.13;;;4.50;;
29416;SDS011;28421;51.030;4.006;2024-03-06T04:36:15;6.53;;;3.85;;
29416;SDS011;28421;51.030;4.006;2024-03-06T04:38:42;3.30;;;3.00;;
29416;SDS011;28421;51.030;4.006;2024-03-06T04:41:07;6.82;;;3.58;;
29416;SDS011;28421;51.030;4.006;2024-03-06T04:43:33;4.15;;;3.47;;
29416;SDS011;28421;51.030;4.006;2024-03-06T04:46:00;8.27;;;3.60;;
29416;SDS011;28421;51.030;4.006;2024-03-06T04:48:25;3.20;;;2.92;;
29416;SDS011;28421;51.030;4.006;2024-03-06T04:50:51;3.38;;;2.78;;
29416;SDS011;28421;51.030;4.006;2024-03-06T04:53:16;3.60;;;3.13;;
29416;SDS011;28421;51.030;4.006;2024-03-06T04:55:42;3.22;;;2.83;;
29416;SDS011;28421;51.030;4.006;2024-03-06T04:58:07;4.22;;;3.25;;
29416;SDS011;28421;51.030;4.006;2024-03-06T05:00:33;5.80;;;3.67;;
29416;SDS011;28421;51.030;4.006;2024-03-06T05:02:59;4.53;;;3.20;;
29416;SDS011;28421;51.030;4.006;2024-03-06T05:05:24;5.50;;;3.88;;
29416;SDS011;28421;51.030;4.006;2024-03-06T05:07:50;3.40;;;2.95;;
29416;SDS011;28421;51.030;4.006;2024-03-06T05:10:17;6.78;;;3.83;;
29416;SDS011;28421;51.030;4.006;2024-03-06T05:12:43;4.65;;;2.67;;
29416;SDS011;28421;51.030;4.006;2024-03-06T05:15:09;3.92;;;2.97;;
29416;SDS011;28421;51.030;4.006;2024-03-06T05:17:35;3.55;;;2.88;;
29416;SDS011;28421;51.030;4.006;2024-03-06T05:20:01;3.42;;;3.13;;
29416;SDS011;28421;51.030;4.006;2024-03-06T05:22:28;3.35;;;2.97;;
29416;SDS011;28421;51.030;4.006;2024-03-06T05:24:54;4.55;;;4.15;;
29416;SDS011;28421;51.030;4.006;2024-03-06T05:27:20;4.20;;;2.80;;
29416;SDS011;28421;51.030;4.006;2024-03-06T05:29:46;3.70;;;3.00;;
29416;SDS011;28421;51.030;4.006;2024-03-06T05:32:12;5.15;;;3.83;;
29416;SDS011;28421;51.030;4.006;2024-03-06T05:34:37;4.53;;;3.58;;
29416;SDS011;28421;51.030;4.006;2024-03-06T05:37:03;6.05;;;3.78;;
29416;SDS011;28421;51.030;4.006;2024-03-06T05:39:29;6.95;;;3.78;;
29416;SDS011;28421;51.030;4.006;2024-03-06T05:41:59;4.07;;;3.33;;
29416;SDS011;28421;51.030;4.006;2024-03-06T05:44:27;12.32;;;4.00;;
29416;SDS011;28421;51.030;4.006;2024-03-06T05:46:53;6.50;;;4.25;;
29416;SDS011;28421;51.030;4.006;2024-03-06T05:49:19;4.88;;;4.00;;
29416;SDS011;28421;51.030;4.006;2024-03-06T05:51:44;4.43;;;3.50;;
29416;SDS011;28421;51.030;4.006;2024-03-06T05:54:10;6.93;;;3.33;;
29416;SDS011;28421;51.030;4.006;2024-03-06T05:56:36;5.28;;;4.03;;
29416;SDS011;28421;51.030;4.006;2024-03-06T05:59:01;6.82;;;4.80;;
29416;SDS011;28421;51.030;4.006;2024-03-06T06:01:30;4.78;;;3.75;;
29416;SDS011;28421;51.030;4.006;2024-03-06T06:03:56;4.93;;;4.38;;
29416;SDS011;28421;51.030;4.006;2024-03-06T06:06:22;7.90;;;3.63;;
29416;SDS011;28421;51.030;4.006;2024-03-06T06:08:47;5.43;;;4.30;;
29416;SDS011;28421;51.030;4.006;2024-03-06T06:11:13;10.73;;;5.00;;
29416;SDS011;28421;51.030;4.006;2024-03-06T06:13:38;5.18;;;4.30;;
29416;SDS011;28421;51.030;4.006;2024-03-06T06:16:07;4.20;;;3.72;;
29416;SDS011;28421;51.030;4.006;2024-03-06T06:18:32;8.95;;;5.75;;
29416;SDS011;28421;51.030;4.006;2024-03-06T06:20:58;5.80;;;3.58;;
29416;SDS011;28421;51.030;4.006;2024-03-06T06:23:24;5.38;;;4.88;;
29416;SDS011;28421;51.030;4.006;2024-03-06T06:25:50;4.80;;;3.30;;
29416;SDS011;28421;51.030;4.006;2024-03-06T06:28:16;7.75;;;4.13;;
29416;SDS011;28421;51.030;4.006;2024-03-06T06:30:41;4.22;;;3.90;;
29416;SDS011;28421;51.030;4.006;2024-03-06T06:33:07;5.18;;;4.40;;
29416;SDS011;28421;51.030;4.006;2024-03-06T06:35:33;5.75;;;5.07;;
29416;SDS011;28421;51.030;4.006;2024-03-06T06:38:02;9.70;;;4.97;;
29416;SDS011;28421;51.030;4.006;2024-03-06T06:40:29;8.07;;;4.82;;
29416;SDS011;28421;51.030;4.006;2024-03-06T06:42:55;5.10;;;4.47;;
29416;SDS011;28421;51.030;4.006;2024-03-06T06:45:21;7.10;;;4.50;;
29416;SDS011;28421;51.030;4.006;2024-03-06T06:47:47;6.82;;;4.68;;
29416;SDS011;28421;51.030;4.006;2024-03-06T06:50:14;8.02;;;5.53;;
29416;SDS011;28421;51.030;4.006;2024-03-06T06:52:39;5.45;;;4.57;;
29416;SDS011;28421;51.030;4.006;2024-03-06T06:55:05;6.57;;;4.32;;
29416;SDS011;28421;51.030;4.006;2024-03-06T06:57:31;4.88;;;4.28;;
29416;SDS011;28421;51.030;4.006;2024-03-06T06:59:58;8.10;;;6.20;;
29416;SDS011;28421;51.030;4.006;2024-03-06T07:02:24;9.55;;;6.70;;
29416;SDS011;28421;51.030;4.006;2024-03-06T07:04:50;4.78;;;4.07;;
29416;SDS011;28421;51.030;4.006;2024-03-06T07:07:16;7.93;;;5.72;;
29416;SDS011;28421;51.030;4.006;2024-03-06T07:09:42;8.40;;;4.78;;
29416;SDS011;28421;51.030;4.006;2024-03-06T07:12:08;6.25;;;5.65;;
29416;SDS011;28421;51.030;4.006;2024-03-06T07:14:34;7.28;;;5.00;;
29416;SDS011;28421;51.030;4.006;2024-03-06T07:17:00;6.72;;;4.25;;
29416;SDS011;28421;51.030;4.006;2024-03-06T07:19:25;8.65;;;5.72;;
29416;SDS011;28421;51.030;4.006;2024-03-06T07:21:51;8.82;;;5.30;;
29416;SDS011;28421;51.030;4.006;2024-03-06T07:24:17;10.18;;;6.05;;
29416;SDS011;28421;51.030;4.006;2024-03-06T07:26:43;9.02;;;5.28;;
29416;SDS011;28421;51.030;4.006;2024-03-06T07:29:08;6.53;;;4.95;;
29416;SDS011;28421;51.030;4.006;2024-03-06T07:31:40;13.27;;;5.80;;
29416;SDS011;28421;51.030;4.006;2024-03-06T07:34:06;7.57;;;4.85;;
29416;SDS011;28421;51.030;4.006;2024-03-06T07:36:33;11.13;;;5.93;;
29416;SDS011;28421;51.030;4.006;2024-03-06T07:39:00;8.27;;;5.28;;
29416;SDS011;28421;51.030;4.006;2024-03-06T07:41:26;8.98;;;5.75;;
29416;SDS011;28421;51.030;4.006;2024-03-06T07:43:51;8.30;;;4.88;;
29416;SDS011;28421;51.030;4.006;2024-03-06T07:46:17;9.02;;;5.88;;
29416;SDS011;28421;51.030;4.006;2024-03-06T07:48:42;11.65;;;5.35;;
29416;SDS011;28421;51.030;4.006;2024-03-06T07:51:11;7.47;;;5.07;;
29416;SDS011;28421;51.030;4.006;2024-03-06T07:53:36;10.63;;;6.50;;
29416;SDS011;28421;51.030;4.006;2024-03-06T07:56:03;6.07;;;4.85;;
29416;SDS011;28421;51.030;4.006;2024-03-06T07:58:29;13.90;;;5.07;;
29416;SDS011;28421;51.030;4.006;2024-03-06T08:00:54;8.52;;;5.50;;
29416;SDS011;28421;51.030;4.006;2024-03-06T08:03:21;13.40;;;6.80;;
29416;SDS011;28421;51.030;4.006;2024-03-06T08:05:50;8.00;;;6.38;;
29416;SDS011;28421;51.030;4.006;2024-03-06T08:08:17;12.07;;;7.60;;
29416;SDS011;28421;51.030;4.006;2024-03-06T08:10:43;10.18;;;6.60;;
29416;SDS011;28421;51.030;4.006;2024-03-06T08:13:10;11.02;;;7.75;;
29416;SDS011;28421;51.030;4.006;2024-03-06T08:15:35;8.05;;;6.05;;
29416;SDS011;28421;51.030;4.006;2024-03-06T08:18:01;12.45;;;6.78;;
29416;SDS011;28421;51.030;4.006;2024-03-06T08:20:28;9.35;;;6.03;;
29416;SDS011;28421;51.030;4.006;2024-03-06T08:22:54;10.88;;;6.65;;
29416;SDS011;28421;51.030;4.006;2024-03-06T08:25:21;19.77;;;8.60;;
29416;SDS011;28421;51.030;4.006;2024-03-06T08:27:47;7.65;;;5.88;;
29416;SDS011;28421;51.030;4.006;2024-03-06T08:30:12;9.80;;;5.95;;
29416;SDS011;28421;51.030;4.006;2024-03-06T08:32:38;13.85;;;7.38;;
29416;SDS011;28421;51.030;4.006;2024-03-06T08:35:04;9.55;;;5.95;;
29416;SDS011;28421;51.030;4.006;2024-03-06T08:37:36;11.32;;;6.25;;
29416;SDS011;28421;51.030;4.006;2024-03-06T08:40:03;12.85;;;7.35;;
29416;SDS011;28421;51.030;4.006;2024-03-06T08:42:29;11.25;;;6.03;;
29416;SDS011;28421;51.030;4.006;2024-03-06T08:44:54;9.32;;;6.72;;
29416;SDS011;28421;51.030;4.006;2024-03-06T08:47:20;12.45;;;6.97;;
29416;SDS011;28421;51.030;4.006;2024-03-06T08:49:45;9.95;;;7.72;;
29416;SDS011;28421;51.030;4.006;2024-03-06T08:52:11;9.05;;;6.55;;
29416;SDS011;28421;51.030;4.006;2024-03-06T08:54:39;16.35;;;9.55;;
29416;SDS011;28421;51.030;4.006;2024-03-06T08:57:06;14.85;;;9.88;;
29416;SDS011;28421;51.030;4.006;2024-03-06T08:59:33;14.27;;;8.32;;
29416;SDS011;28421;51.030;4.006;2024-03-06T09:02:11;12.43;;;6.78;;
29416;SDS011;28421;51.030;4.006;2024-03-06T09:04:38;15.35;;;7.80;;
29416;SDS011;28421;51.030;4.006;2024-03-06T09:07:04;14.13;;;8.25;;
29416;SDS011;28421;51.030;4.006;2024-03-06T09:09:29;15.43;;;9.73;;
29416;SDS011;28421;51.030;4.006;2024-03-06T09:11:55;17.75;;;9.32;;
29416;SDS011;28421;51.030;4.006;2024-03-06T09:14:20;16.50;;;8.50;;
29416;SDS011;28421;51.030;4.006;2024-03-06T09:16:45;16.73;;;8.70;;
29416;SDS011;28421;51.030;4.006;2024-03-06T09:19:11;16.50;;;8.00;;
29416;SDS011;28421;51.030;4.006;2024-03-06T09:21:36;16.55;;;8.02;;
29416;SDS011;28421;51.030;4.006;2024-03-06T09:24:02;12.80;;;6.72;;
29416;SDS011;28421;51.030;4.006;2024-03-06T09:26:27;12.88;;;7.50;;
29416;SDS011;28421;51.030;4.006;2024-03-06T09:28:53;13.80;;;7.07;;
29416;SDS011;28421;51.030;4.006;2024-03-06T09:31:18;8.57;;;6.47;;
29416;SDS011;28421;51.030;4.006;2024-03-06T09:33:44;11.73;;;6.90;;
29416;SDS011;28421;51.030;4.006;2024-03-06T09:36:11;11.70;;;5.85;;
29416;SDS011;28421;51.030;4.006;2024-03-06T09:38:38;15.07;;;8.02;;
29416;SDS011;28421;51.030;4.006;2024-03-06T09:41:05;12.75;;;7.10;;
29416;SDS011;28421;51.030;4.006;2024-03-06T09:43:32;14.48;;;7.30;;
29416;SDS011;28421;51.030;4.006;2024-03-06T09:45:58;15.60;;;6.07;;
29416;SDS011;28421;51.030;4.006;2024-03-06T09:48:23;8.27;;;5.53;;
29416;SDS011;28421;51.030;4.006;2024-03-06T09:50:49;7.35;;;4.55;;
29416;SDS011;28421;51.030;4.006;2024-03-06T09:53:17;15.00;;;6.72;;
29416;SDS011;28421;51.030;4.006;2024-03-06T09:55:44;9.90;;;5.32;;
29416;SDS011;28421;51.030;4.006;2024-03-06T09:58:11;9.73;;;5.43;;
29416;SDS011;28421;51.030;4.006;2024-03-06T10:00:37;9.30;;;5.60;;
29416;SDS011;28421;51.030;4.006;2024-03-06T10:03:03;11.23;;;6.13;;
29416;SDS011;28421;51.030;4.006;2024-03-06T10:05:31;16.23;;;6.47;;
29416;SDS011;28421;51.030;4.006;2024-03-06T10:07:59;8.57;;;5.72;;
29416;SDS011;28421;51.030;4.006;2024-03-06T10:10:26;11.02;;;5.70;;
29416;SDS011;28421;51.030;4.006;2024-03-06T10:12:52;9.77;;;6.32;;
29416;SDS011;28421;51.030;4.006;2024-03-06T10:15:17;7.40;;;5.05;;
29416;SDS011;28421;51.030;4.006;2024-03-06T10:17:43;8.60;;;5.72;;
29416;SDS011;28421;51.030;4.006;2024-03-06T10:20:23;7.53;;;4.90;;
29416;SDS011;28421;51.030;4.006;2024-03-06T10:22:49;7.65;;;4.18;;
29416;SDS011;28421;51.030;4.006;2024-03-06T10:25:22;8.75;;;5.00;;
29416;SDS011;28421;51.030;4.006;2024-03-06T10:30:34;12.15;;;5.43;;
29416;SDS011;28421;51.030;4.006;2024-03-06T10:33:02;8.98;;;4.95;;
29416;SDS011;28421;51.030;4.006;2024-03-06T10:35:28;9.57;;;5.57;;
29416;SDS011;28421;51.030;4.006;2024-03-06T10:37:54;10.38;;;5.05;;
29416;SDS011;28421;51.030;4.006;2024-03-06T10:40:22;7.93;;;4.60;;
29416;SDS011;28421;51.030;4.006;2024-03-06T10:42:48;9.60;;;5.78;;
29416;SDS011;28421;51.030;4.006;2024-03-06T10:45:14;12.27;;;6.65;;
29416;SDS011;28421;51.030;4.006;2024-03-06T10:47:45;13.65;;;6.82;;
29416;SDS011;28421;51.030;4.006;2024-03-06T10:50:13;13.73;;;8.15;;
29416;SDS011;28421;51.030;4.006;2024-03-06T10:52:39;18.25;;;9.05;;
29416;SDS011;28421;51.030;4.006;2024-03-06T10:55:07;14.23;;;7.38;;
29416;SDS011;28421;51.030;4.006;2024-03-06T10:57:35;12.70;;;6.68;;
29416;SDS011;28421;51.030;4.006;2024-03-06T11:00:02;13.48;;;7.68;;
29416;SDS011;28421;51.030;4.006;2024-03-06T11:02:28;11.93;;;6.32;;
29416;SDS011;28421;51.030;4.006;2024-03-06T11:04:54;11.35;;;6.55;;
29416;SDS011;28421;51.030;4.006;2024-03-06T11:07:20;12.30;;;7.57;;
29416;SDS011;28421;51.030;4.006;2024-03-06T11:09:46;9.40;;;5.82;;
29416;SDS011;28421;51.030;4.006;2024-03-06T11:12:32;9.57;;;5.47;;
29416;SDS011;28421;51.030;4.006;2024-03-06T11:14:59;12.95;;;6.45;;
29416;SDS011;28421;51.030;4.006;2024-03-06T11:17:26;7.47;;;5.40;;
29416;SDS011;28421;51.030;4.006;2024-03-06T11:28:12;7.47;;;4.90;;
29416;SDS011;28421;51.030;4.006;2024-03-06T11:30:48;16.15;;;5.68;;
29416;SDS011;28421;51.030;4.006;2024-03-06T11:33:20;8.05;;;4.78;;
29416;SDS011;28421;51.030;4.006;2024-03-06T11:38:52;8.65;;;3.60;;
29416;SDS011;28421;51.030;4.006;2024-03-06T11:41:27;5.30;;;4.03;;
29416;SDS011;28421;51.030;4.006;2024-03-06T11:43:55;11.50;;;5.20;;
29416;SDS011;28421;51.030;4.006;2024-03-06T11:46:22;10.48;;;4.78;;
29416;SDS011;28421;51.030;4.006;2024-03-06T11:48:51;9.50;;;5.00;;
29416;SDS011;28421;51.030;4.006;2024-03-06T11:51:21;8.07;;;4.20;;
29416;SDS011;28421;51.030;4.006;2024-03-06T11:53:50;10.73;;;4.70;;
29416;SDS011;28421;51.030;4.006;2024-03-06T11:56:17;10.23;;;5.53;;
29416;SDS011;28421;51.030;4.006;2024-03-06T11:58:44;13.80;;;6.72;;
29416;SDS011;28421;51.030;4.006;2024-03-06T12:01:10;16.17;;;7.90;;
29416;SDS011;28421;51.030;4.006;2024-03-06T12:03:36;12.73;;;6.93;;
29416;SDS011;28421;51.030;4.006;2024-03-06T12:06:01;15.70;;;7.05;;
29416;SDS011;28421;51.030;4.006;2024-03-06T12:08:28;16.75;;;7.72;;
29416;SDS011;28421;51.030;4.006;2024-03-06T12:10:53;12.73;;;6.60;;
29416;SDS011;28421;51.030;4.006;2024-03-06T12:13:23;13.55;;;6.68;;
29416;SDS011;28421;51.030;4.006;2024-03-06T12:15:49;10.20;;;5.78;;
29416;SDS011;28421;51.030;4.006;2024-03-06T12:18:16;16.02;;;6.93;;
29416;SDS011;28421;51.030;4.006;2024-03-06T12:20:43;10.20;;;6.05;;
29416;SDS011;28421;51.030;4.006;2024-03-06T12:23:18;13.05;;;6.88;;
29416;SDS011;28421;51.030;4.006;2024-03-06T12:25:46;10.23;;;5.22;;
29416;SDS011;28421;51.030;4.006;2024-03-06T12:28:11;10.05;;;4.93;;
29416;SDS011;28421;51.030;4.006;2024-03-06T12:30:41;13.95;;;4.85;;
29416;SDS011;28421;51.030;4.006;2024-03-06T12:33:08;8.43;;;5.30;;
29416;SDS011;28421;51.030;4.006;2024-03-06T12:35:37;12.15;;;5.32;;
29416;SDS011;28421;51.030;4.006;2024-03-06T12:38:15;18.08;;;5.15;;
29416;SDS011;28421;51.030;4.006;2024-03-06T12:40:44;8.77;;;5.28;;
29416;SDS011;28421;51.030;4.006;2024-03-06T12:43:09;12.68;;;4.95;;
29416;SDS011;28421;51.030;4.006;2024-03-06T12:45:35;10.23;;;5.45;;
29416;SDS011;28421;51.030;4.006;2024-03-06T12:48:02;12.73;;;5.38;;
29416;SDS011;28421;51.030;4.006;2024-03-06T12:50:28;12.10;;;6.78;;
29416;SDS011;28421;51.030;4.006;2024-03-06T12:52:53;10.32;;;5.47;;
29416;SDS011;28421;51.030;4.006;2024-03-06T12:55:19;9.52;;;5.30;;
29416;SDS011;28421;51.030;4.006;2024-03-06T12:57:45;10.52;;;4.97;;
29416;SDS011;28421;51.030;4.006;2024-03-06T13:00:10;9.50;;;4.85;;
29416;SDS011;28421;51.030;4.006;2024-03-06T13:02:41;13.30;;;6.00;;
29416;SDS011;28421;51.030;4.006;2024-03-06T13:05:10;9.13;;;5.30;;
29416;SDS011;28421;51.030;4.006;2024-03-06T13:07:37;13.57;;;5.80;;
29416;SDS011;28421;51.030;4.006;2024-03-06T13:10:03;8.90;;;4.40;;
29416;SDS011;28421;51.030;4.006;2024-03-06T13:12:28;9.90;;;4.93;;
29416;SDS011;28421;51.030;4.006;2024-03-06T13:14:55;9.77;;;5.43;;
29416;SDS011;28421;51.030;4.006;2024-03-06T13:17:21;9.88;;;4.78;;
29416;SDS011;28421;51.030;4.006;2024-03-06T13:19:46;8.95;;;5.22;;
29416;SDS011;28421;51.030;4.006;2024-03-06T13:22:12;8.05;;;5.63;;
29416;SDS011;28421;51.030;4.006;2024-03-06T13:24:37;6.00;;;3.65;;
29416;SDS011;28421;51.030;4.006;2024-03-06T13:27:03;6.63;;;3.90;;
29416;SDS011;28421;51.030;4.006;2024-03-06T13:29:29;8.02;;;4.30;;
29416;SDS011;28421;51.030;4.006;2024-03-06T13:31:58;10.45;;;4.70;;
29416;SDS011;28421;51.030;4.006;2024-03-06T13:34:23;11.57;;;4.95;;
29416;SDS011;28421;51.030;4.006;2024-03-06T13:36:48;10.00;;;4.43;;
29416;SDS011;28421;51.030;4.006;2024-03-06T13:39:15;9.43;;;5.18;;
29416;SDS011;28421;51.030;4.006;2024-03-06T13:41:40;7.88;;;3.60;;
29416;SDS011;28421;51.030;4.006;2024-03-06T13:44:06;9.77;;;4.10;;
29416;SDS011;28421;51.030;4.006;2024-03-06T13:46:33;5.40;;;3.97;;
29416;SDS011;28421;51.030;4.006;2024-03-06T13:49:00;8.02;;;5.30;;
29416;SDS011;28421;51.030;4.006;2024-03-06T13:51:26;5.32;;;3.78;;
29416;SDS011;28421;51.030;4.006;2024-03-06T13:53:51;6.28;;;4.20;;
29416;SDS011;28421;51.030;4.006;2024-03-06T13:56:17;6.55;;;4.20;;
29416;SDS011;28421;51.030;4.006;2024-03-06T13:58:43;5.20;;;3.33;;
29416;SDS011;28421;51.030;4.006;2024-03-06T14:01:09;5.50;;;3.10;;
29416;SDS011;28421;51.030;4.006;2024-03-06T14:03:34;7.50;;;4.22;;
29416;SDS011;28421;51.030;4.006;2024-03-06T14:06:02;5.25;;;3.58;;
29416;SDS011;28421;51.030;4.006;2024-03-06T14:08:28;5.55;;;2.58;;
29416;SDS011;28421;51.030;4.006;2024-03-06T14:10:54;5.82;;;3.35;;
29416;SDS011;28421;51.030;4.006;2024-03-06T14:13:19;3.58;;;2.40;;
29416;SDS011;28421;51.030;4.006;2024-03-06T14:15:45;3.70;;;2.03;;
29416;SDS011;28421;51.030;4.006;2024-03-06T14:18:12;3.72;;;2.45;;
29416;SDS011;28421;51.030;4.006;2024-03-06T14:20:38;6.10;;;2.78;;
29416;SDS011;28421;51.030;4.006;2024-03-06T14:23:04;5.22;;;2.83;;
29416;SDS011;28421;51.030;4.006;2024-03-06T14:25:29;3.60;;;2.33;;
29416;SDS011;28421;51.030;4.006;2024-03-06T14:27:55;1.85;;;1.38;;
29416;SDS011;28421;51.030;4.006;2024-03-06T14:30:21;3.15;;;1.75;;
29416;SDS011;28421;51.030;4.006;2024-03-06T14:32:46;1.65;;;1.50;;
29416;SDS011;28421;51.030;4.006;2024-03-06T14:35:12;3.08;;;2.08;;
29416;SDS011;28421;51.030;4.006;2024-03-06T14:37:37;2.83;;;1.73;;
29416;SDS011;28421;51.030;4.006;2024-03-06T14:40:04;2.22;;;1.50;;
29416;SDS011;28421;51.030;4.006;2024-03-06T14:42:33;2.03;;;1.83;;
29416;SDS011;28421;51.030;4.006;2024-03-06T14:44:59;3.05;;;2.08;;
29416;SDS011;28421;51.030;4.006;2024-03-06T14:47:25;3.97;;;2.28;;
29416;SDS011;28421;51.030;4.006;2024-03-06T14:49:51;4.72;;;2.25;;
29416;SDS011;28421;51.030;4.006;2024-03-06T14:52:16;2.97;;;2.67;;
29416;SDS011;28421;51.030;4.006;2024-03-06T14:54:42;3.28;;;2.35;;